sensor_id;sensor_type;location;lat;lon;timestamp;P1;durP1;ratioP1;P2;durP2;ratioP2
6547;SDS011;3307;52.416;16.862;2022-08-14T00:00:58;15.00;;;13.70;;
6547;SDS011;3307;52.416;16.862;2022-08-14T00:03:25;14.13;;;12.90;;
6547;SDS011;3307;52.416;16.862;2022-08-14T00:05:52;14.80;;;13.60;;
6547;SDS011;3307;52.416;16.862;2022-08-14T00:08:17;14.13;;;13.03;;
6547;SDS011;3307;52.416;16.862;2022-08-14T00:10:43;14.80;;;13.60;;
6547;SDS011;3307;52.416;16.862;2022-08-14T00:13:09;13.37;;;12.07;;
6547;SDS011;3307;52.416;16.862;2022-08-14T00:15:37;14.67;;;13.40;;
6547;SDS011;3307;52.416;16.862;2022-08-14T00:18:04;14.50;;;13.23;;
6547;SDS011;3307;52.416;16.862;2022-08-14T00:20:31;14.60;;;13.30;;
6547;SDS011;3307;52.416;16.862;2022-08-14T00:22:59;17.50;;;12.93;;
6547;SDS011;3307;52.416;16.862;2022-08-14T00:25:25;13.60;;;12.47;;
6547;SDS011;3307;52.416;16.862;2022-08-14T00:27:51;14.67;;;13.30;;
6547;SDS011;3307;52.416;16.862;2022-08-14T00:30:16;14.70;;;13.40;;
6547;SDS011;3307;52.416;16.862;2022-08-14T00:32:42;12.70;;;11.70;;
6547;SDS011;3307;52.416;16.862;2022-08-14T00:35:08;12.27;;;11.10;;
6547;SDS011;3307;52.416;16.862;2022-08-14T00:37:36;12.47;;;11.43;;
6547;SDS011;3307;52.416;16.862;2022-08-14T00:40:02;12.40;;;11.03;;
6547;SDS011;3307;52.416;16.862;2022-08-14T00:42:28;14.17;;;11.30;;
6547;SDS011;3307;52.416;16.862;2022-08-14T00:44:54;11.50;;;9.63;;
6547;SDS011;3307;52.416;16.862;2022-08-14T00:47:20;13.13;;;11.70;;
6547;SDS011;3307;52.416;16.862;2022-08-14T00:49:49;12.17;;;10.97;;
6547;SDS011;3307;52.416;16.862;2022-08-14T00:52:15;12.33;;;11.13;;
6547;SDS011;3307;52.416;16.862;2022-08-14T00:54:41;12.37;;;11.23;;
6547;SDS011;3307;52.416;16.862;2022-08-14T00:57:08;11.97;;;10.60;;
6547;SDS011;3307;52.416;16.862;2022-08-14T00:59:34;11.37;;;10.37;;
6547;SDS011;3307;52.416;16.862;2022-08-14T01:02:00;12.23;;;11.07;;
6547;SDS011;3307;52.416;16.862;2022-08-14T01:04:27;11.90;;;10.10;;
6547;SDS011;3307;52.416;16.862;2022-08-14T01:06:56;11.17;;;10.30;;
6547;SDS011;3307;52.416;16.862;2022-08-14T01:09:22;12.03;;;10.83;;
6547;SDS011;3307;52.416;16.862;2022-08-14T01:11:49;10.57;;;9.40;;
6547;SDS011;3307;52.416;16.862;2022-08-14T01:14:15;10.53;;;9.50;;
6547;SDS011;3307;52.416;16.862;2022-08-14T01:16:41;11.67;;;10.63;;
6547;SDS011;3307;52.416;16.862;2022-08-14T01:19:07;11.10;;;10.03;;
6547;SDS011;3307;52.416;16.862;2022-08-14T01:21:51;10.70;;;9.90;;
6547;SDS011;3307;52.416;16.862;2022-08-14T01:24:16;12.00;;;10.67;;
6547;SDS011;3307;52.416;16.862;2022-08-14T01:26:42;10.80;;;10.00;;
6547;SDS011;3307;52.416;16.862;2022-08-14T01:29:08;11.27;;;10.27;;
6547;SDS011;3307;52.416;16.862;2022-08-14T01:31:34;11.37;;;10.50;;
6547;SDS011;3307;52.416;16.862;2022-08-14T01:34:05;12.03;;;10.77;;
6547;SDS011;3307;52.416;16.862;2022-08-14T01:36:31;10.40;;;9.53;;
6547;SDS011;3307;52.416;16.862;2022-08-14T01:39:00;10.63;;;9.70;;
6547;SDS011;3307;52.416;16.862;2022-08-14T01:41:28;12.20;;;10.77;;
6547;SDS011;3307;52.416;16.862;2022-08-14T01:43:59;11.70;;;10.70;;
6547;SDS011;3307;52.416;16.862;2022-08-14T01:46:26;11.30;;;10.27;;
6547;SDS011;3307;52.416;16.862;2022-08-14T01:48:53;10.13;;;9.27;;
6547;SDS011;3307;52.416;16.862;2022-08-14T01:51:20;10.30;;;9.47;;
6547;SDS011;3307;52.416;16.862;2022-08-14T01:53:48;11.17;;;10.07;;
6547;SDS011;3307;52.416;16.862;2022-08-14T01:56:18;10.23;;;9.30;;
6547;SDS011;3307;52.416;16.862;2022-08-14T01:58:48;9.70;;;8.90;;
6547;SDS011;3307;52.416;16.862;2022-08-14T02:01:15;10.43;;;9.53;;
6547;SDS011;3307;52.416;16.862;2022-08-14T02:03:41;10.50;;;9.40;;
6547;SDS011;3307;52.416;16.862;2022-08-14T02:06:06;9.83;;;9.03;;
6547;SDS011;3307;52.416;16.862;2022-08-14T02:08:32;10.93;;;10.03;;
6547;SDS011;3307;52.416;16.862;2022-08-14T02:11:01;9.70;;;9.00;;
6547;SDS011;3307;52.416;16.862;2022-08-14T02:13:48;10.37;;;9.47;;
6547;SDS011;3307;52.416;16.862;2022-08-14T02:16:15;9.53;;;8.63;;
6547;SDS011;3307;52.416;16.862;2022-08-14T02:18:43;10.20;;;9.43;;
6547;SDS011;3307;52.416;16.862;2022-08-14T02:21:08;12.33;;;9.23;;
6547;SDS011;3307;52.416;16.862;2022-08-14T02:23:36;8.77;;;8.07;;
6547;SDS011;3307;52.416;16.862;2022-08-14T02:26:02;9.80;;;8.67;;
6547;SDS011;3307;52.416;16.862;2022-08-14T02:28:37;9.53;;;8.63;;
6547;SDS011;3307;52.416;16.862;2022-08-14T02:31:03;9.40;;;8.70;;
6547;SDS011;3307;52.416;16.862;2022-08-14T02:33:29;12.13;;;8.60;;
6547;SDS011;3307;52.416;16.862;2022-08-14T02:35:55;9.83;;;8.90;;
6547;SDS011;3307;52.416;16.862;2022-08-14T02:38:20;10.00;;;9.20;;
6547;SDS011;3307;52.416;16.862;2022-08-14T02:40:45;10.23;;;9.33;;
6547;SDS011;3307;52.416;16.862;2022-08-14T02:43:12;10.10;;;9.30;;
6547;SDS011;3307;52.416;16.862;2022-08-14T02:45:38;10.30;;;9.47;;
6547;SDS011;3307;52.416;16.862;2022-08-14T02:48:05;11.60;;;9.10;;
6547;SDS011;3307;52.416;16.862;2022-08-14T02:50:32;9.43;;;8.60;;
6547;SDS011;3307;52.416;16.862;2022-08-14T02:52:59;10.33;;;9.53;;
6547;SDS011;3307;52.416;16.862;2022-08-14T02:55:25;10.43;;;8.50;;
6547;SDS011;3307;52.416;16.862;2022-08-14T02:57:50;10.10;;;9.30;;
6547;SDS011;3307;52.416;16.862;2022-08-14T03:00:16;10.43;;;9.40;;
6547;SDS011;3307;52.416;16.862;2022-08-14T03:02:42;10.23;;;9.20;;
6547;SDS011;3307;52.416;16.862;2022-08-14T03:05:08;12.20;;;9.73;;
6547;SDS011;3307;52.416;16.862;2022-08-14T03:07:36;10.00;;;9.30;;
6547;SDS011;3307;52.416;16.862;2022-08-14T03:10:02;10.13;;;9.33;;
6547;SDS011;3307;52.416;16.862;2022-08-14T03:12:27;9.87;;;8.53;;
6547;SDS011;3307;52.416;16.862;2022-08-14T03:14:53;10.57;;;9.57;;
6547;SDS011;3307;52.416;16.862;2022-08-14T03:17:18;11.23;;;10.10;;
6547;SDS011;3307;52.416;16.862;2022-08-14T03:19:43;11.00;;;10.00;;
6547;SDS011;3307;52.416;16.862;2022-08-14T03:22:09;10.40;;;9.53;;
6547;SDS011;3307;52.416;16.862;2022-08-14T03:24:34;10.57;;;9.57;;
6547;SDS011;3307;52.416;16.862;2022-08-14T03:27:02;10.47;;;9.47;;
6547;SDS011;3307;52.416;16.862;2022-08-14T03:29:31;9.17;;;8.37;;
6547;SDS011;3307;52.416;16.862;2022-08-14T03:31:56;13.93;;;12.50;;
6547;SDS011;3307;52.416;16.862;2022-08-14T03:34:23;14.63;;;10.77;;
6547;SDS011;3307;52.416;16.862;2022-08-14T03:36:50;11.10;;;9.80;;
6547;SDS011;3307;52.416;16.862;2022-08-14T03:39:20;11.20;;;10.30;;
6547;SDS011;3307;52.416;16.862;2022-08-14T03:41:46;10.40;;;9.40;;
6547;SDS011;3307;52.416;16.862;2022-08-14T03:44:13;11.30;;;10.30;;
6547;SDS011;3307;52.416;16.862;2022-08-14T03:46:39;12.63;;;10.67;;
6547;SDS011;3307;52.416;16.862;2022-08-14T03:49:07;11.53;;;10.50;;
6547;SDS011;3307;52.416;16.862;2022-08-14T03:51:33;11.63;;;10.60;;
6547;SDS011;3307;52.416;16.862;2022-08-14T03:54:00;9.53;;;8.70;;
6547;SDS011;3307;52.416;16.862;2022-08-14T03:56:28;11.07;;;10.00;;
6547;SDS011;3307;52.416;16.862;2022-08-14T03:58:55;10.67;;;9.60;;
6547;SDS011;3307;52.416;16.862;2022-08-14T04:01:22;11.20;;;9.57;;
6547;SDS011;3307;52.416;16.862;2022-08-14T04:03:49;12.30;;;9.67;;
6547;SDS011;3307;52.416;16.862;2022-08-14T04:06:17;12.27;;;10.87;;
6547;SDS011;3307;52.416;16.862;2022-08-14T04:08:44;10.40;;;9.40;;
6547;SDS011;3307;52.416;16.862;2022-08-14T04:11:10;10.33;;;9.43;;
6547;SDS011;3307;52.416;16.862;2022-08-14T04:13:37;11.90;;;10.70;;
6547;SDS011;3307;52.416;16.862;2022-08-14T04:16:05;11.50;;;10.40;;
6547;SDS011;3307;52.416;16.862;2022-08-14T04:18:33;11.77;;;10.53;;
6547;SDS011;3307;52.416;16.862;2022-08-14T04:21:03;11.77;;;10.60;;
6547;SDS011;3307;52.416;16.862;2022-08-14T04:23:29;10.17;;;9.27;;
6547;SDS011;3307;52.416;16.862;2022-08-14T04:25:55;10.30;;;9.40;;
6547;SDS011;3307;52.416;16.862;2022-08-14T04:28:21;10.80;;;9.90;;
6547;SDS011;3307;52.416;16.862;2022-08-14T04:30:46;11.23;;;10.20;;
6547;SDS011;3307;52.416;16.862;2022-08-14T04:33:12;9.97;;;9.27;;
6547;SDS011;3307;52.416;16.862;2022-08-14T04:35:38;11.13;;;10.30;;
6547;SDS011;3307;52.416;16.862;2022-08-14T04:38:08;10.87;;;9.90;;
6547;SDS011;3307;52.416;16.862;2022-08-14T04:40:53;10.03;;;9.07;;
6547;SDS011;3307;52.416;16.862;2022-08-14T04:43:38;10.40;;;9.40;;
6547;SDS011;3307;52.416;16.862;2022-08-14T04:46:12;10.97;;;10.03;;
6547;SDS011;3307;52.416;16.862;2022-08-14T04:48:39;11.23;;;10.20;;
6547;SDS011;3307;52.416;16.862;2022-08-14T04:51:06;10.47;;;9.47;;
6547;SDS011;3307;52.416;16.862;2022-08-14T04:53:33;10.27;;;9.40;;
6547;SDS011;3307;52.416;16.862;2022-08-14T04:56:00;9.47;;;8.50;;
6547;SDS011;3307;52.416;16.862;2022-08-14T04:58:27;10.37;;;9.57;;
6547;SDS011;3307;52.416;16.862;2022-08-14T05:00:54;9.67;;;8.73;;
6547;SDS011;3307;52.416;16.862;2022-08-14T05:03:21;10.00;;;9.10;;
6547;SDS011;3307;52.416;16.862;2022-08-14T05:05:52;10.17;;;9.27;;
6547;SDS011;3307;52.416;16.862;2022-08-14T05:08:19;10.10;;;8.97;;
6547;SDS011;3307;52.416;16.862;2022-08-14T05:10:45;9.97;;;9.00;;
6547;SDS011;3307;52.416;16.862;2022-08-14T05:13:16;10.00;;;9.10;;
6547;SDS011;3307;52.416;16.862;2022-08-14T05:15:45;9.87;;;8.97;;
6547;SDS011;3307;52.416;16.862;2022-08-14T05:18:12;10.67;;;9.37;;
6547;SDS011;3307;52.416;16.862;2022-08-14T05:20:40;9.43;;;8.60;;
6547;SDS011;3307;52.416;16.862;2022-08-14T05:23:18;11.53;;;8.50;;
6547;SDS011;3307;52.416;16.862;2022-08-14T05:25:45;8.77;;;8.07;;
6547;SDS011;3307;52.416;16.862;2022-08-14T05:28:12;9.63;;;8.83;;
6547;SDS011;3307;52.416;16.862;2022-08-14T05:30:44;8.70;;;8.07;;
6547;SDS011;3307;52.416;16.862;2022-08-14T05:33:14;10.07;;;9.10;;
6547;SDS011;3307;52.416;16.862;2022-08-14T05:35:42;15.17;;;9.73;;
6547;SDS011;3307;52.416;16.862;2022-08-14T05:38:13;9.17;;;8.40;;
6547;SDS011;3307;52.416;16.862;2022-08-14T05:40:41;9.90;;;9.00;;
6547;SDS011;3307;52.416;16.862;2022-08-14T05:43:09;9.10;;;8.37;;
6547;SDS011;3307;52.416;16.862;2022-08-14T05:45:35;9.50;;;8.70;;
6547;SDS011;3307;52.416;16.862;2022-08-14T05:48:02;9.57;;;8.83;;
6547;SDS011;3307;52.416;16.862;2022-08-14T05:50:28;9.10;;;8.40;;
6547;SDS011;3307;52.416;16.862;2022-08-14T05:52:53;9.30;;;8.43;;
6547;SDS011;3307;52.416;16.862;2022-08-14T05:55:20;8.73;;;7.90;;
6547;SDS011;3307;52.416;16.862;2022-08-14T05:57:46;9.73;;;8.77;;
6547;SDS011;3307;52.416;16.862;2022-08-14T06:00:17;9.17;;;8.37;;
6547;SDS011;3307;52.416;16.862;2022-08-14T06:02:43;9.47;;;8.43;;
6547;SDS011;3307;52.416;16.862;2022-08-14T06:05:09;8.37;;;7.57;;
6547;SDS011;3307;52.416;16.862;2022-08-14T06:07:35;11.33;;;8.53;;
6547;SDS011;3307;52.416;16.862;2022-08-14T06:10:01;8.67;;;8.07;;
6547;SDS011;3307;52.416;16.862;2022-08-14T06:12:27;8.57;;;7.73;;
6547;SDS011;3307;52.416;16.862;2022-08-14T06:14:52;8.47;;;7.67;;
6547;SDS011;3307;52.416;16.862;2022-08-14T06:17:18;8.13;;;7.43;;
6547;SDS011;3307;52.416;16.862;2022-08-14T06:19:43;8.60;;;7.90;;
6547;SDS011;3307;52.416;16.862;2022-08-14T06:22:09;8.33;;;7.70;;
6547;SDS011;3307;52.416;16.862;2022-08-14T06:24:34;9.50;;;8.70;;
6547;SDS011;3307;52.416;16.862;2022-08-14T06:26:59;8.27;;;7.67;;
6547;SDS011;3307;52.416;16.862;2022-08-14T06:29:25;8.40;;;7.70;;
6547;SDS011;3307;52.416;16.862;2022-08-14T06:31:50;8.43;;;7.83;;
6547;SDS011;3307;52.416;16.862;2022-08-14T06:34:16;7.90;;;7.30;;
6547;SDS011;3307;52.416;16.862;2022-08-14T06:36:41;8.37;;;7.57;;
6547;SDS011;3307;52.416;16.862;2022-08-14T06:39:07;8.73;;;7.90;;
6547;SDS011;3307;52.416;16.862;2022-08-14T06:41:32;8.70;;;7.90;;
6547;SDS011;3307;52.416;16.862;2022-08-14T06:43:57;8.40;;;7.80;;
6547;SDS011;3307;52.416;16.862;2022-08-14T06:46:23;8.53;;;7.80;;
6547;SDS011;3307;52.416;16.862;2022-08-14T06:48:48;8.70;;;7.70;;
6547;SDS011;3307;52.416;16.862;2022-08-14T06:51:14;8.40;;;7.70;;
6547;SDS011;3307;52.416;16.862;2022-08-14T06:53:39;9.00;;;8.30;;
6547;SDS011;3307;52.416;16.862;2022-08-14T06:56:04;8.93;;;8.23;;
6547;SDS011;3307;52.416;16.862;2022-08-14T06:58:30;8.80;;;7.80;;
6547;SDS011;3307;52.416;16.862;2022-08-14T07:00:55;7.67;;;7.07;;
6547;SDS011;3307;52.416;16.862;2022-08-14T07:03:39;9.17;;;8.47;;
6547;SDS011;3307;52.416;16.862;2022-08-14T07:06:23;9.03;;;8.33;;
6547;SDS011;3307;52.416;16.862;2022-08-14T07:08:49;8.70;;;7.90;;
6547;SDS011;3307;52.416;16.862;2022-08-14T07:11:16;9.67;;;8.70;;
6547;SDS011;3307;52.416;16.862;2022-08-14T07:13:41;12.30;;;7.83;;
6547;SDS011;3307;52.416;16.862;2022-08-14T07:16:07;8.30;;;7.67;;
6547;SDS011;3307;52.416;16.862;2022-08-14T07:18:36;8.87;;;8.13;;
6547;SDS011;3307;52.416;16.862;2022-08-14T07:21:03;8.57;;;7.67;;
6547;SDS011;3307;52.416;16.862;2022-08-14T07:23:29;8.67;;;7.77;;
6547;SDS011;3307;52.416;16.862;2022-08-14T07:25:55;8.17;;;7.53;;
6547;SDS011;3307;52.416;16.862;2022-08-14T07:28:23;8.93;;;8.23;;
6547;SDS011;3307;52.416;16.862;2022-08-14T07:30:53;8.87;;;8.07;;
6547;SDS011;3307;52.416;16.862;2022-08-14T07:33:22;8.80;;;8.10;;
6547;SDS011;3307;52.416;16.862;2022-08-14T07:35:51;8.43;;;7.73;;
6547;SDS011;3307;52.416;16.862;2022-08-14T07:38:18;8.60;;;7.80;;
6547;SDS011;3307;52.416;16.862;2022-08-14T07:40:45;8.27;;;7.57;;
6547;SDS011;3307;52.416;16.862;2022-08-14T07:43:11;8.83;;;8.00;;
6547;SDS011;3307;52.416;16.862;2022-08-14T07:45:37;9.20;;;7.93;;
6547;SDS011;3307;52.416;16.862;2022-08-14T07:48:03;8.80;;;8.17;;
6547;SDS011;3307;52.416;16.862;2022-08-14T07:50:29;9.20;;;7.87;;
6547;SDS011;3307;52.416;16.862;2022-08-14T07:52:54;8.80;;;8.00;;
6547;SDS011;3307;52.416;16.862;2022-08-14T07:55:19;8.60;;;8.00;;
6547;SDS011;3307;52.416;16.862;2022-08-14T07:57:45;8.43;;;7.83;;
6547;SDS011;3307;52.416;16.862;2022-08-14T08:00:16;7.90;;;7.20;;
6547;SDS011;3307;52.416;16.862;2022-08-14T08:02:44;8.40;;;7.63;;
6547;SDS011;3307;52.416;16.862;2022-08-14T08:05:11;7.93;;;7.33;;
6547;SDS011;3307;52.416;16.862;2022-08-14T08:07:37;7.67;;;6.97;;
6547;SDS011;3307;52.416;16.862;2022-08-14T08:10:08;8.10;;;7.60;;
6547;SDS011;3307;52.416;16.862;2022-08-14T08:15:25;8.47;;;7.70;;
6547;SDS011;3307;52.416;16.862;2022-08-14T08:17:53;7.27;;;6.57;;
6547;SDS011;3307;52.416;16.862;2022-08-14T08:20:21;7.37;;;6.73;;
6547;SDS011;3307;52.416;16.862;2022-08-14T08:22:51;7.73;;;7.13;;
6547;SDS011;3307;52.416;16.862;2022-08-14T08:25:19;8.10;;;7.40;;
6547;SDS011;3307;52.416;16.862;2022-08-14T08:27:55;7.87;;;7.37;;
6547;SDS011;3307;52.416;16.862;2022-08-14T08:30:20;7.27;;;6.67;;
6547;SDS011;3307;52.416;16.862;2022-08-14T08:32:46;8.07;;;7.43;;
6547;SDS011;3307;52.416;16.862;2022-08-14T08:35:16;22.40;;;7.83;;
6547;SDS011;3307;52.416;16.862;2022-08-14T08:37:42;7.30;;;6.67;;
6547;SDS011;3307;52.416;16.862;2022-08-14T08:40:08;6.30;;;5.80;;
6547;SDS011;3307;52.416;16.862;2022-08-14T08:42:33;7.20;;;6.60;;
6547;SDS011;3307;52.416;16.862;2022-08-14T08:44:59;6.80;;;6.17;;
6547;SDS011;3307;52.416;16.862;2022-08-14T08:47:24;9.40;;;7.13;;
6547;SDS011;3307;52.416;16.862;2022-08-14T08:49:50;7.40;;;6.90;;
6547;SDS011;3307;52.416;16.862;2022-08-14T08:52:16;6.77;;;6.17;;
6547;SDS011;3307;52.416;16.862;2022-08-14T08:54:51;7.63;;;6.40;;
6547;SDS011;3307;52.416;16.862;2022-08-14T08:57:17;7.50;;;6.07;;
6547;SDS011;3307;52.416;16.862;2022-08-14T08:59:43;9.03;;;6.10;;
6547;SDS011;3307;52.416;16.862;2022-08-14T09:02:09;8.40;;;6.43;;
6547;SDS011;3307;52.416;16.862;2022-08-14T09:04:36;8.67;;;7.50;;
6547;SDS011;3307;52.416;16.862;2022-08-14T09:07:03;6.50;;;5.77;;
6547;SDS011;3307;52.416;16.862;2022-08-14T09:09:30;8.73;;;6.67;;
6547;SDS011;3307;52.416;16.862;2022-08-14T09:11:57;7.20;;;6.20;;
6547;SDS011;3307;52.416;16.862;2022-08-14T09:14:24;7.43;;;5.57;;
6547;SDS011;3307;52.416;16.862;2022-08-14T09:16:51;5.90;;;5.50;;
6547;SDS011;3307;52.416;16.862;2022-08-14T09:19:17;5.93;;;5.43;;
6547;SDS011;3307;52.416;16.862;2022-08-14T09:21:43;6.77;;;5.93;;
6547;SDS011;3307;52.416;16.862;2022-08-14T09:24:10;9.30;;;6.60;;
6547;SDS011;3307;52.416;16.862;2022-08-14T09:26:36;7.77;;;7.07;;
6547;SDS011;3307;52.416;16.862;2022-08-14T09:29:02;10.70;;;6.13;;
6547;SDS011;3307;52.416;16.862;2022-08-14T09:31:28;6.30;;;5.40;;
6547;SDS011;3307;52.416;16.862;2022-08-14T09:33:57;6.80;;;5.20;;
6547;SDS011;3307;52.416;16.862;2022-08-14T09:47:02;5.77;;;5.23;;
6547;SDS011;3307;52.416;16.862;2022-08-14T09:49:33;6.97;;;6.37;;
6547;SDS011;3307;52.416;16.862;2022-08-14T09:52:10;8.20;;;4.77;;
6547;SDS011;3307;52.416;16.862;2022-08-14T09:54:41;6.33;;;5.83;;
6547;SDS011;3307;52.416;16.862;2022-08-14T09:57:08;7.30;;;6.57;;
6547;SDS011;3307;52.416;16.862;2022-08-14T09:59:45;6.00;;;5.60;;
6547;SDS011;3307;52.416;16.862;2022-08-14T10:02:21;6.37;;;5.83;;
6547;SDS011;3307;52.416;16.862;2022-08-14T10:04:59;6.20;;;5.77;;
6547;SDS011;3307;52.416;16.862;2022-08-14T10:07:30;6.70;;;6.10;;
6547;SDS011;3307;52.416;16.862;2022-08-14T10:09:59;6.70;;;6.10;;
6547;SDS011;3307;52.416;16.862;2022-08-14T10:12:26;7.13;;;6.50;;
6547;SDS011;3307;52.416;16.862;2022-08-14T10:15:19;6.70;;;6.10;;
6547;SDS011;3307;52.416;16.862;2022-08-14T10:17:47;7.43;;;6.37;;
6547;SDS011;3307;52.416;16.862;2022-08-14T10:20:17;6.87;;;6.00;;
6547;SDS011;3307;52.416;16.862;2022-08-14T10:22:46;6.80;;;6.27;;
6547;SDS011;3307;52.416;16.862;2022-08-14T10:25:14;6.00;;;5.60;;
6547;SDS011;3307;52.416;16.862;2022-08-14T10:27:41;7.73;;;7.03;;
6547;SDS011;3307;52.416;16.862;2022-08-14T10:30:12;7.30;;;6.70;;
6547;SDS011;3307;52.416;16.862;2022-08-14T10:32:42;8.20;;;7.40;;
6547;SDS011;3307;52.416;16.862;2022-08-14T10:35:12;7.30;;;6.70;;
6547;SDS011;3307;52.416;16.862;2022-08-14T10:37:48;8.73;;;8.03;;
6547;SDS011;3307;52.416;16.862;2022-08-14T10:40:28;8.67;;;7.97;;
6547;SDS011;3307;52.416;16.862;2022-08-14T10:42:54;7.33;;;6.77;;
6547;SDS011;3307;52.416;16.862;2022-08-14T10:45:25;7.63;;;7.00;;
6547;SDS011;3307;52.416;16.862;2022-08-14T10:47:55;7.93;;;7.20;;
6547;SDS011;3307;52.416;16.862;2022-08-14T10:50:28;8.67;;;7.87;;
6547;SDS011;3307;52.416;16.862;2022-08-14T10:52:58;7.97;;;7.10;;
6547;SDS011;3307;52.416;16.862;2022-08-14T10:55:29;8.70;;;7.97;;
6547;SDS011;3307;52.416;16.862;2022-08-14T10:57:56;9.27;;;8.37;;
6547;SDS011;3307;52.416;16.862;2022-08-14T11:00:23;11.00;;;9.00;;
6547;SDS011;3307;52.416;16.862;2022-08-14T11:03:03;10.97;;;9.73;;
6547;SDS011;3307;52.416;16.862;2022-08-14T11:05:42;10.23;;;9.43;;
6547;SDS011;3307;52.416;16.862;2022-08-14T11:08:13;10.00;;;9.00;;
6547;SDS011;3307;52.416;16.862;2022-08-14T11:13:06;11.07;;;9.40;;
6547;SDS011;3307;52.416;16.862;2022-08-14T11:15:33;10.60;;;9.40;;
6547;SDS011;3307;52.416;16.862;2022-08-14T11:17:59;33.13;;;30.20;;
6547;SDS011;3307;52.416;16.862;2022-08-14T11:20:26;10.90;;;9.87;;
6547;SDS011;3307;52.416;16.862;2022-08-14T11:22:54;9.87;;;9.17;;
6547;SDS011;3307;52.416;16.862;2022-08-14T11:25:22;10.23;;;9.23;;
6547;SDS011;3307;52.416;16.862;2022-08-14T11:27:49;10.90;;;10.00;;
6547;SDS011;3307;52.416;16.862;2022-08-14T11:30:17;9.30;;;8.40;;
6547;SDS011;3307;52.416;16.862;2022-08-14T11:32:44;11.53;;;9.07;;
6547;SDS011;3307;52.416;16.862;2022-08-14T11:35:16;10.40;;;9.60;;
6547;SDS011;3307;52.416;16.862;2022-08-14T11:40:15;9.50;;;8.80;;
6547;SDS011;3307;52.416;16.862;2022-08-14T11:42:43;10.80;;;9.87;;
6547;SDS011;3307;52.416;16.862;2022-08-14T11:45:10;11.20;;;10.30;;
6547;SDS011;3307;52.416;16.862;2022-08-14T11:47:36;10.30;;;9.47;;
6547;SDS011;3307;52.416;16.862;2022-08-14T11:50:10;11.30;;;10.00;;
6547;SDS011;3307;52.416;16.862;2022-08-14T11:52:41;11.30;;;10.10;;
6547;SDS011;3307;52.416;16.862;2022-08-14T11:55:07;12.30;;;11.20;;
6547;SDS011;3307;52.416;16.862;2022-08-14T11:57:36;10.53;;;9.63;;
6547;SDS011;3307;52.416;16.862;2022-08-14T12:00:04;16.90;;;11.77;;
6547;SDS011;3307;52.416;16.862;2022-08-14T12:02:32;12.00;;;10.90;;
6547;SDS011;3307;52.416;16.862;2022-08-14T12:04:57;11.00;;;9.27;;
6547;SDS011;3307;52.416;16.862;2022-08-14T12:07:23;11.40;;;10.37;;
6547;SDS011;3307;52.416;16.862;2022-08-14T12:09:51;11.00;;;10.00;;
6547;SDS011;3307;52.416;16.862;2022-08-14T12:12:18;11.57;;;10.53;;
6547;SDS011;3307;52.416;16.862;2022-08-14T12:15:12;11.53;;;10.53;;
6547;SDS011;3307;52.416;16.862;2022-08-14T12:17:44;10.13;;;9.33;;
6547;SDS011;3307;52.416;16.862;2022-08-14T12:20:12;11.80;;;10.83;;
6547;SDS011;3307;52.416;16.862;2022-08-14T12:22:42;10.70;;;9.90;;
6547;SDS011;3307;52.416;16.862;2022-08-14T12:25:13;10.63;;;9.63;;
6547;SDS011;3307;52.416;16.862;2022-08-14T12:30:06;11.73;;;10.70;;
6547;SDS011;3307;52.416;16.862;2022-08-14T12:32:42;10.83;;;9.83;;
6547;SDS011;3307;52.416;16.862;2022-08-14T12:35:09;11.10;;;10.20;;
6547;SDS011;3307;52.416;16.862;2022-08-14T12:37:35;11.63;;;10.53;;
6547;SDS011;3307;52.416;16.862;2022-08-14T12:40:08;11.67;;;10.73;;
6547;SDS011;3307;52.416;16.862;2022-08-14T12:42:34;12.20;;;11.00;;
6547;SDS011;3307;52.416;16.862;2022-08-14T12:45:00;12.13;;;11.03;;
6547;SDS011;3307;52.416;16.862;2022-08-14T12:47:26;12.03;;;11.00;;
6547;SDS011;3307;52.416;16.862;2022-08-14T12:49:55;13.30;;;11.93;;
6547;SDS011;3307;52.416;16.862;2022-08-14T12:55:06;12.90;;;11.60;;
6547;SDS011;3307;52.416;16.862;2022-08-14T12:57:35;14.07;;;12.90;;
6547;SDS011;3307;52.416;16.862;2022-08-14T13:02:47;14.50;;;13.23;;
6547;SDS011;3307;52.416;16.862;2022-08-14T13:05:19;12.70;;;11.70;;
6547;SDS011;3307;52.416;16.862;2022-08-14T13:07:48;13.37;;;12.17;;
6547;SDS011;3307;52.416;16.862;2022-08-14T13:10:15;14.27;;;13.10;;
6547;SDS011;3307;52.416;16.862;2022-08-14T13:12:42;13.10;;;12.00;;
6547;SDS011;3307;52.416;16.862;2022-08-14T13:15:09;13.83;;;12.77;;
6547;SDS011;3307;52.416;16.862;2022-08-14T13:17:38;13.23;;;12.03;;
6547;SDS011;3307;52.416;16.862;2022-08-14T13:20:12;13.40;;;12.00;;
6547;SDS011;3307;52.416;16.862;2022-08-14T13:22:40;12.80;;;11.70;;
6547;SDS011;3307;52.416;16.862;2022-08-14T13:25:07;14.10;;;12.67;;
6547;SDS011;3307;52.416;16.862;2022-08-14T13:27:33;12.07;;;11.03;;
6547;SDS011;3307;52.416;16.862;2022-08-14T13:30:00;14.77;;;13.47;;
6547;SDS011;3307;52.416;16.862;2022-08-14T13:32:27;12.70;;;11.70;;
6547;SDS011;3307;52.416;16.862;2022-08-14T13:34:53;12.90;;;12.00;;
6547;SDS011;3307;52.416;16.862;2022-08-14T13:37:18;14.23;;;13.13;;
6547;SDS011;3307;52.416;16.862;2022-08-14T13:39:47;13.47;;;12.57;;
6547;SDS011;3307;52.416;16.862;2022-08-14T13:42:16;12.47;;;11.40;;
6547;SDS011;3307;52.416;16.862;2022-08-14T13:44:42;13.67;;;12.33;;
6547;SDS011;3307;52.416;16.862;2022-08-14T13:47:09;13.20;;;12.20;;
6547;SDS011;3307;52.416;16.862;2022-08-14T13:49:36;11.40;;;10.60;;
6547;SDS011;3307;52.416;16.862;2022-08-14T13:52:02;12.50;;;11.50;;
6547;SDS011;3307;52.416;16.862;2022-08-14T13:54:30;12.60;;;11.50;;
6547;SDS011;3307;52.416;16.862;2022-08-14T13:57:01;12.50;;;11.50;;
6547;SDS011;3307;52.416;16.862;2022-08-14T13:59:28;11.83;;;10.83;;
6547;SDS011;3307;52.416;16.862;2022-08-14T14:01:55;11.93;;;10.93;;
6547;SDS011;3307;52.416;16.862;2022-08-14T14:04:22;12.20;;;10.93;;
6547;SDS011;3307;52.416;16.862;2022-08-14T14:06:49;11.80;;;10.90;;
6547;SDS011;3307;52.416;16.862;2022-08-14T14:09:15;11.33;;;10.43;;
6547;SDS011;3307;52.416;16.862;2022-08-14T14:11:45;10.93;;;10.13;;
6547;SDS011;3307;52.416;16.862;2022-08-14T14:14:11;11.00;;;10.10;;
6547;SDS011;3307;52.416;16.862;2022-08-14T14:16:38;11.43;;;10.33;;
6547;SDS011;3307;52.416;16.862;2022-08-14T14:19:04;10.53;;;9.63;;
6547;SDS011;3307;52.416;16.862;2022-08-14T14:21:31;10.17;;;9.23;;
6547;SDS011;3307;52.416;16.862;2022-08-14T14:23:56;10.30;;;9.40;;
6547;SDS011;3307;52.416;16.862;2022-08-14T14:26:22;10.63;;;9.73;;
6547;SDS011;3307;52.416;16.862;2022-08-14T14:28:48;9.17;;;8.47;;
6547;SDS011;3307;52.416;16.862;2022-08-14T14:31:22;8.57;;;7.93;;
6547;SDS011;3307;52.416;16.862;2022-08-14T14:33:55;10.20;;;9.30;;
6547;SDS011;3307;52.416;16.862;2022-08-14T14:36:23;10.60;;;9.50;;
6547;SDS011;3307;52.416;16.862;2022-08-14T14:38:54;10.87;;;9.87;;
6547;SDS011;3307;52.416;16.862;2022-08-14T14:41:26;10.77;;;9.30;;
6547;SDS011;3307;52.416;16.862;2022-08-14T14:43:53;9.77;;;8.90;;
6547;SDS011;3307;52.416;16.862;2022-08-14T14:46:19;11.20;;;10.30;;
6547;SDS011;3307;52.416;16.862;2022-08-14T14:48:45;9.70;;;9.00;;
6547;SDS011;3307;52.416;16.862;2022-08-14T14:51:11;9.17;;;8.47;;
6547;SDS011;3307;52.416;16.862;2022-08-14T14:53:38;9.20;;;8.50;;
6547;SDS011;3307;52.416;16.862;2022-08-14T14:56:05;8.93;;;8.33;;
6547;SDS011;3307;52.416;16.862;2022-08-14T14:58:35;10.03;;;9.23;;
6547;SDS011;3307;52.416;16.862;2022-08-14T15:01:03;10.13;;;9.23;;
6547;SDS011;3307;52.416;16.862;2022-08-14T15:03:30;9.70;;;8.90;;
6547;SDS011;3307;52.416;16.862;2022-08-14T15:05:56;10.10;;;9.30;;
6547;SDS011;3307;52.416;16.862;2022-08-14T15:08:22;9.40;;;8.60;;
6547;SDS011;3307;52.416;16.862;2022-08-14T15:10:47;9.17;;;8.57;;
6547;SDS011;3307;52.416;16.862;2022-08-14T15:13:13;9.03;;;8.33;;
6547;SDS011;3307;52.416;16.862;2022-08-14T15:15:38;9.37;;;8.47;;
6547;SDS011;3307;52.416;16.862;2022-08-14T15:18:05;9.73;;;8.83;;
6547;SDS011;3307;52.416;16.862;2022-08-14T15:20:31;8.97;;;8.17;;